sensor_id;sensor_type;location;lat;lon;timestamp;temperature;humidity
12726;DHT22;6427;49.754;6.106;2023-11-19T00:01:29;12.30;99.90
12726;DHT22;6427;49.754;6.106;2023-11-19T00:03:57;12.30;99.90
12726;DHT22;6427;49.754;6.106;2023-11-19T00:06:25;12.20;99.90
12726;DHT22;6427;49.754;6.106;2023-11-19T00:08:53;12.20;99.90
12726;DHT22;6427;49.754;6.106;2023-11-19T00:11:20;12.20;99.90
12726;DHT22;6427;49.754;6.106;2023-11-19T00:13:49;12.20;99.90
12726;DHT22;6427;49.754;6.106;2023-11-19T00:16:16;12.20;99.90
12726;DHT22;6427;49.754;6.106;2023-11-19T00:18:44;12.20;99.90
12726;DHT22;6427;49.754;6.106;2023-11-19T00:21:12;12.20;99.90
12726;DHT22;6427;49.754;6.106;2023-11-19T00:23:40;12.80;99.90
12726;DHT22;6427;49.754;6.106;2023-11-19T00:26:08;12.70;99.90
12726;DHT22;6427;49.754;6.106;2023-11-19T00:28:35;12.60;99.90
12726;DHT22;6427;49.754;6.106;2023-11-19T00:31:03;12.60;99.90
12726;DHT22;6427;49.754;6.106;2023-11-19T00:33:30;12.50;99.90
12726;DHT22;6427;49.754;6.106;2023-11-19T00:35:59;12.40;99.90
12726;DHT22;6427;49.754;6.106;2023-11-19T00:38:26;12.40;99.90
12726;DHT22;6427;49.754;6.106;2023-11-19T00:40:54;12.40;99.90
12726;DHT22;6427;49.754;6.106;2023-11-19T00:43:22;12.40;99.90
12726;DHT22;6427;49.754;6.106;2023-11-19T00:45:50;12.40;99.90
12726;DHT22;6427;49.754;6.106;2023-11-19T00:48:17;12.40;99.90
12726;DHT22;6427;49.754;6.106;2023-11-19T00:50:45;12.40;99.90
12726;DHT22;6427;49.754;6.106;2023-11-19T00:53:13;12.70;99.90
12726;DHT22;6427;49.754;6.106;2023-11-19T00:55:40;12.60;99.90
12726;DHT22;6427;49.754;6.106;2023-11-19T00:58:08;12.60;99.90
12726;DHT22;6427;49.754;6.106;2023-11-19T01:00:35;12.50;99.90
12726;DHT22;6427;49.754;6.106;2023-11-19T01:03:03;12.50;99.90
12726;DHT22;6427;49.754;6.106;2023-11-19T01:05:31;12.50;99.90
12726;DHT22;6427;49.754;6.106;2023-11-19T01:07:58;12.50;99.90
12726;DHT22;6427;49.754;6.106;2023-11-19T01:10:26;12.60;99.90
12726;DHT22;6427;49.754;6.106;2023-11-19T01:12:53;12.50;99.90
12726;DHT22;6427;49.754;6.106;2023-11-19T01:15:22;12.60;99.90
12726;DHT22;6427;49.754;6.106;2023-11-19T01:17:49;12.60;99.90
12726;DHT22;6427;49.754;6.106;2023-11-19T01:20:18;12.60;99.90
12726;DHT22;6427;49.754;6.106;2023-11-19T01:22:45;12.60;99.90
12726;DHT22;6427;49.754;6.106;2023-11-19T01:25:13;12.60;99.90
12726;DHT22;6427;49.754;6.106;2023-11-19T01:27:41;12.90;99.90
12726;DHT22;6427;49.754;6.106;2023-11-19T01:30:08;13.10;99.90
12726;DHT22;6427;49.754;6.106;2023-11-19T01:32:39;13.00;99.90
12726;DHT22;6427;49.754;6.106;2023-11-19T01:35:07;12.90;99.90
12726;DHT22;6427;49.754;6.106;2023-11-19T01:37:34;12.90;99.90
12726;DHT22;6427;49.754;6.106;2023-11-19T01:40:02;12.90;99.90
12726;DHT22;6427;49.754;6.106;2023-11-19T01:42:29;12.80;99.90
12726;DHT22;6427;49.754;6.106;2023-11-19T01:45:00;12.80;99.90
12726;DHT22;6427;49.754;6.106;2023-11-19T01:47:27;12.80;99.90
12726;DHT22;6427;49.754;6.106;2023-11-19T01:49:55;12.70;99.90
12726;DHT22;6427;49.754;6.106;2023-11-19T01:52:23;13.00;99.90
12726;DHT22;6427;49.754;6.106;2023-11-19T01:54:50;13.30;99.90
12726;DHT22;6427;49.754;6.106;2023-11-19T01:57:19;13.10;99.90
12726;DHT22;6427;49.754;6.106;2023-11-19T01:59:46;13.10;99.90
12726;DHT22;6427;49.754;6.106;2023-11-19T02:02:14;13.00;99.90
12726;DHT22;6427;49.754;6.106;2023-11-19T02:04:41;13.00;99.90
12726;DHT22;6427;49.754;6.106;2023-11-19T02:07:09;13.00;99.90
12726;DHT22;6427;49.754;6.106;2023-11-19T02:09:36;12.90;99.90
12726;DHT22;6427;49.754;6.106;2023-11-19T02:12:04;13.00;99.90
12726;DHT22;6427;49.754;6.106;2023-11-19T02:14:32;12.90;99.90
12726;DHT22;6427;49.754;6.106;2023-11-19T02:16:59;13.00;99.90
12726;DHT22;6427;49.754;6.106;2023-11-19T02:19:27;13.00;99.90
12726;DHT22;6427;49.754;6.106;2023-11-19T02:21:54;13.00;99.90
12726;DHT22;6427;49.754;6.106;2023-11-19T02:24:22;13.00;99.90
12726;DHT22;6427;49.754;6.106;2023-11-19T02:27:02;13.00;99.90
12726;DHT22;6427;49.754;6.106;2023-11-19T02:29:23;13.00;99.90
12726;DHT22;6427;49.754;6.106;2023-11-19T02:31:50;13.40;99.90
12726;DHT22;6427;49.754;6.106;2023-11-19T02:34:18;13.60;99.90
12726;DHT22;6427;49.754;6.106;2023-11-19T02:36:45;13.50;99.90
12726;DHT22;6427;49.754;6.106;2023-11-19T02:39:13;13.50;99.90
12726;DHT22;6427;49.754;6.106;2023-11-19T02:41:41;13.40;99.90
12726;DHT22;6427;49.754;6.106;2023-11-19T02:44:08;13.40;99.90
12726;DHT22;6427;49.754;6.106;2023-11-19T02:46:36;13.40;99.90
12726;DHT22;6427;49.754;6.106;2023-11-19T02:49:04;13.40;99.90
12726;DHT22;6427;49.754;6.106;2023-11-19T02:51:32;13.40;99.90
12726;DHT22;6427;49.754;6.106;2023-11-19T02:53:59;13.40;99.90
12726;DHT22;6427;49.754;6.106;2023-11-19T02:56:27;13.40;99.90
12726;DHT22;6427;49.754;6.106;2023-11-19T02:58:54;13.40;99.90
12726;DHT22;6427;49.754;6.106;2023-11-19T03:01:23;13.40;99.90
12726;DHT22;6427;49.754;6.106;2023-11-19T03:03:52;13.40;99.90
12726;DHT22;6427;49.754;6.106;2023-11-19T03:06:21;13.50;99.90
12726;DHT22;6427;49.754;6.106;2023-11-19T03:08:48;13.50;99.90
12726;DHT22;6427;49.754;6.106;2023-11-19T03:11:16;13.50;99.90
12726;DHT22;6427;49.754;6.106;2023-11-19T03:13:43;13.50;99.90
12726;DHT22;6427;49.754;6.106;2023-11-19T03:16:11;13.50;99.90
12726;DHT22;6427;49.754;6.106;2023-11-19T03:18:39;13.60;99.90
12726;DHT22;6427;49.754;6.106;2023-11-19T03:21:07;13.60;99.90
12726;DHT22;6427;49.754;6.106;2023-11-19T03:23:37;13.60;99.90
12726;DHT22;6427;49.754;6.106;2023-11-19T03:26:05;13.60;99.90
12726;DHT22;6427;49.754;6.106;2023-11-19T03:28:32;13.60;99.90
12726;DHT22;6427;49.754;6.106;2023-11-19T03:31:01;13.60;99.90
12726;DHT22;6427;49.754;6.106;2023-11-19T03:33:28;13.70;99.90
12726;DHT22;6427;49.754;6.106;2023-11-19T03:35:56;13.70;99.90
12726;DHT22;6427;49.754;6.106;2023-11-19T03:38:24;13.70;99.90
12726;DHT22;6427;49.754;6.106;2023-11-19T03:40:52;13.70;99.90
12726;DHT22;6427;49.754;6.106;2023-11-19T03:43:20;13.70;99.90
12726;DHT22;6427;49.754;6.106;2023-11-19T03:45:48;13.70;99.90
12726;DHT22;6427;49.754;6.106;2023-11-19T03:48:15;13.70;99.90
12726;DHT22;6427;49.754;6.106;2023-11-19T03:50:46;13.80;99.90
12726;DHT22;6427;49.754;6.106;2023-11-19T03:53:13;13.80;99.90
12726;DHT22;6427;49.754;6.106;2023-11-19T03:55:41;13.80;99.90
12726;DHT22;6427;49.754;6.106;2023-11-19T03:58:09;13.80;99.90
12726;DHT22;6427;49.754;6.106;2023-11-19T04:00:37;13.90;99.90
12726;DHT22;6427;49.754;6.106;2023-11-19T04:03:04;13.90;99.90
12726;DHT22;6427;49.754;6.106;2023-11-19T04:05:32;13.90;99.90
12726;DHT22;6427;49.754;6.106;2023-11-19T04:07:59;13.90;99.90
12726;DHT22;6427;49.754;6.106;2023-11-19T04:10:27;13.90;99.90
12726;DHT22;6427;49.754;6.106;2023-11-19T04:12:55;13.90;99.90
12726;DHT22;6427;49.754;6.106;2023-11-19T04:15:22;13.90;99.90
12726;DHT22;6427;49.754;6.106;2023-11-19T04:17:50;13.90;99.90
12726;DHT22;6427;49.754;6.106;2023-11-19T04:20:17;13.90;99.90
12726;DHT22;6427;49.754;6.106;2023-11-19T04:22:45;13.90;99.90
12726;DHT22;6427;49.754;6.106;2023-11-19T04:25:12;14.00;99.90
12726;DHT22;6427;49.754;6.106;2023-11-19T04:27:40;14.00;99.90
12726;DHT22;6427;49.754;6.106;2023-11-19T04:30:08;14.00;99.90
12726;DHT22;6427;49.754;6.106;2023-11-19T04:32:35;14.00;99.90
12726;DHT22;6427;49.754;6.106;2023-11-19T04:35:04;14.00;99.90
12726;DHT22;6427;49.754;6.106;2023-11-19T04:37:31;14.00;99.90
12726;DHT22;6427;49.754;6.106;2023-11-19T04:40:00;14.00;99.90
12726;DHT22;6427;49.754;6.106;2023-11-19T04:42:27;14.00;99.90
12726;DHT22;6427;49.754;6.106;2023-11-19T04:44:55;14.00;99.90
12726;DHT22;6427;49.754;6.106;2023-11-19T04:47:22;14.00;99.90
12726;DHT22;6427;49.754;6.106;2023-11-19T04:49:50;14.00;99.90
12726;DHT22;6427;49.754;6.106;2023-11-19T04:52:17;14.00;99.90
12726;DHT22;6427;49.754;6.106;2023-11-19T04:54:45;14.00;99.90
12726;DHT22;6427;49.754;6.106;2023-11-19T04:57:13;14.00;99.90
12726;DHT22;6427;49.754;6.106;2023-11-19T04:59:40;14.00;99.90
12726;DHT22;6427;49.754;6.106;2023-11-19T05:02:08;14.10;99.90
12726;DHT22;6427;49.754;6.106;2023-11-19T05:04:35;14.10;99.90
12726;DHT22;6427;49.754;6.106;2023-11-19T05:07:04;14.10;99.90
12726;DHT22;6427;49.754;6.106;2023-11-19T05:09:32;14.10;99.90
12726;DHT22;6427;49.754;6.106;2023-11-19T05:12:00;14.10;99.90
12726;DHT22;6427;49.754;6.106;2023-11-19T05:14:27;14.10;99.90
12726;DHT22;6427;49.754;6.106;2023-11-19T05:16:56;14.10;99.90
12726;DHT22;6427;49.754;6.106;2023-11-19T05:19:23;14.10;99.90
12726;DHT22;6427;49.754;6.106;2023-11-19T05:21:51;14.10;99.90
12726;DHT22;6427;49.754;6.106;2023-11-19T05:24:19;14.10;99.90
12726;DHT22;6427;49.754;6.106;2023-11-19T05:26:47;14.10;99.90
12726;DHT22;6427;49.754;6.106;2023-11-19T05:29:14;14.10;99.90
12726;DHT22;6427;49.754;6.106;2023-11-19T05:31:42;14.00;99.90
12726;DHT22;6427;49.754;6.106;2023-11-19T05:34:09;14.30;99.90
12726;DHT22;6427;49.754;6.106;2023-11-19T05:36:37;14.30;99.90
12726;DHT22;6427;49.754;6.106;2023-11-19T05:39:05;14.00;99.90
12726;DHT22;6427;49.754;6.106;2023-11-19T05:41:33;14.00;99.90
12726;DHT22;6427;49.754;6.106;2023-11-19T05:44:01;14.00;99.90
12726;DHT22;6427;49.754;6.106;2023-11-19T05:46:28;13.90;99.90
12726;DHT22;6427;49.754;6.106;2023-11-19T05:48:56;13.80;99.90
12726;DHT22;6427;49.754;6.106;2023-11-19T05:51:23;13.80;99.90
12726;DHT22;6427;49.754;6.106;2023-11-19T05:53:51;13.70;99.90
12726;DHT22;6427;49.754;6.106;2023-11-19T05:56:19;13.70;99.90
12726;DHT22;6427;49.754;6.106;2023-11-19T05:58:46;13.60;99.90
12726;DHT22;6427;49.754;6.106;2023-11-19T06:01:14;13.60;99.90
12726;DHT22;6427;49.754;6.106;2023-11-19T06:03:41;13.60;99.90
12726;DHT22;6427;49.754;6.106;2023-11-19T06:06:09;13.50;99.90
12726;DHT22;6427;49.754;6.106;2023-11-19T06:08:36;13.50;99.90
12726;DHT22;6427;49.754;6.106;2023-11-19T06:11:04;13.50;99.90
12726;DHT22;6427;49.754;6.106;2023-11-19T06:13:32;13.50;99.90
12726;DHT22;6427;49.754;6.106;2023-11-19T06:16:00;13.50;99.90
12726;DHT22;6427;49.754;6.106;2023-11-19T06:18:28;13.50;99.90
12726;DHT22;6427;49.754;6.106;2023-11-19T06:20:55;13.60;99.90
12726;DHT22;6427;49.754;6.106;2023-11-19T06:23:23;13.60;99.90
12726;DHT22;6427;49.754;6.106;2023-11-19T06:25:50;13.90;99.90
12726;DHT22;6427;49.754;6.106;2023-11-19T06:28:18;13.90;99.90
12726;DHT22;6427;49.754;6.106;2023-11-19T06:30:46;13.90;99.90
12726;DHT22;6427;49.754;6.106;2023-11-19T06:33:13;14.10;99.90
12726;DHT22;6427;49.754;6.106;2023-11-19T06:35:41;14.10;99.90
12726;DHT22;6427;49.754;6.106;2023-11-19T06:38:08;14.00;99.90
12726;DHT22;6427;49.754;6.106;2023-11-19T06:40:37;13.90;99.90
12726;DHT22;6427;49.754;6.106;2023-11-19T06:43:04;13.90;99.90
12726;DHT22;6427;49.754;6.106;2023-11-19T06:45:32;13.90;99.90
12726;DHT22;6427;49.754;6.106;2023-11-19T06:48:05;13.80;99.90
12726;DHT22;6427;49.754;6.106;2023-11-19T06:50:33;13.80;99.90
12726;DHT22;6427;49.754;6.106;2023-11-19T06:53:00;13.80;99.90
12726;DHT22;6427;49.754;6.106;2023-11-19T06:55:28;14.10;99.90
12726;DHT22;6427;49.754;6.106;2023-11-19T06:57:56;14.10;99.90
12726;DHT22;6427;49.754;6.106;2023-11-19T07:00:23;14.00;99.90
12726;DHT22;6427;49.754;6.106;2023-11-19T07:02:51;14.30;99.90
12726;DHT22;6427;49.754;6.106;2023-11-19T07:05:18;14.10;99.90
12726;DHT22;6427;49.754;6.106;2023-11-19T07:07:47;13.90;99.90
12726;DHT22;6427;49.754;6.106;2023-11-19T07:10:14;13.90;99.90
12726;DHT22;6427;49.754;6.106;2023-11-19T07:12:42;13.90;99.90
12726;DHT22;6427;49.754;6.106;2023-11-19T07:15:09;13.80;99.90
12726;DHT22;6427;49.754;6.106;2023-11-19T07:17:38;14.10;99.90
12726;DHT22;6427;49.754;6.106;2023-11-19T07:20:05;14.00;99.90
12726;DHT22;6427;49.754;6.106;2023-11-19T07:22:32;13.90;99.90
12726;DHT22;6427;49.754;6.106;2023-11-19T07:25:00;14.10;99.90
12726;DHT22;6427;49.754;6.106;2023-11-19T07:27:27;14.00;99.90
12726;DHT22;6427;49.754;6.106;2023-11-19T07:29:55;13.90;99.90
12726;DHT22;6427;49.754;6.106;2023-11-19T07:32:23;13.90;99.90
12726;DHT22;6427;49.754;6.106;2023-11-19T07:34:50;13.90;99.90
12726;DHT22;6427;49.754;6.106;2023-11-19T07:37:19;13.80;99.90
12726;DHT22;6427;49.754;6.106;2023-11-19T07:39:46;13.80;99.90
12726;DHT22;6427;49.754;6.106;2023-11-19T07:42:14;13.80;99.90
12726;DHT22;6427;49.754;6.106;2023-11-19T07:44:42;13.80;99.90
12726;DHT22;6427;49.754;6.106;2023-11-19T07:47:09;13.80;99.90
12726;DHT22;6427;49.754;6.106;2023-11-19T07:49:36;13.70;99.90
12726;DHT22;6427;49.754;6.106;2023-11-19T07:52:05;13.70;99.90
12726;DHT22;6427;49.754;6.106;2023-11-19T07:54:32;13.70;99.90
12726;DHT22;6427;49.754;6.106;2023-11-19T07:57:00;13.70;99.90
12726;DHT22;6427;49.754;6.106;2023-11-19T07:59:28;13.90;99.90
12726;DHT22;6427;49.754;6.106;2023-11-19T08:01:55;14.00;99.90
12726;DHT22;6427;49.754;6.106;2023-11-19T08:04:23;13.90;99.90
12726;DHT22;6427;49.754;6.106;2023-11-19T08:06:50;13.80;99.90
12726;DHT22;6427;49.754;6.106;2023-11-19T08:09:19;13.60;99.90
12726;DHT22;6427;49.754;6.106;2023-11-19T08:11:46;13.60;99.90
12726;DHT22;6427;49.754;6.106;2023-11-19T08:14:14;13.60;99.90
12726;DHT22;6427;49.754;6.106;2023-11-19T08:16:41;13.50;99.90
12726;DHT22;6427;49.754;6.106;2023-11-19T08:19:09;13.50;99.90
12726;DHT22;6427;49.754;6.106;2023-11-19T08:21:37;13.50;99.90
12726;DHT22;6427;49.754;6.106;2023-11-19T08:24:04;13.50;99.90
12726;DHT22;6427;49.754;6.106;2023-11-19T08:26:32;13.50;99.90
12726;DHT22;6427;49.754;6.106;2023-11-19T08:29:00;13.70;99.90
12726;DHT22;6427;49.754;6.106;2023-11-19T08:31:28;13.70;99.90
12726;DHT22;6427;49.754;6.106;2023-11-19T08:33:55;13.60;99.90
12726;DHT22;6427;49.754;6.106;2023-11-19T08:36:23;13.80;99.90
12726;DHT22;6427;49.754;6.106;2023-11-19T08:38:51;14.00;99.90
12726;DHT22;6427;49.754;6.106;2023-11-19T08:41:18;13.90;99.90
12726;DHT22;6427;49.754;6.106;2023-11-19T08:43:46;13.70;99.90
12726;DHT22;6427;49.754;6.106;2023-11-19T08:46:13;13.60;99.90
12726;DHT22;6427;49.754;6.106;2023-11-19T08:48:41;13.60;99.90
12726;DHT22;6427;49.754;6.106;2023-11-19T08:51:10;13.50;99.90
12726;DHT22;6427;49.754;6.106;2023-11-19T08:53:38;13.50;99.90
12726;DHT22;6427;49.754;6.106;2023-11-19T08:56:06;13.50;99.90
12726;DHT22;6427;49.754;6.106;2023-11-19T08:58:33;13.50;99.90
12726;DHT22;6427;49.754;6.106;2023-11-19T09:01:01;13.50;99.90
12726;DHT22;6427;49.754;6.106;2023-11-19T09:03:30;13.80;99.90
12726;DHT22;6427;49.754;6.106;2023-11-19T09:05:56;13.80;99.90
12726;DHT22;6427;49.754;6.106;2023-11-19T09:08:24;13.70;99.90
12726;DHT22;6427;49.754;6.106;2023-11-19T09:10:51;13.70;99.90
12726;DHT22;6427;49.754;6.106;2023-11-19T09:13:19;13.70;99.90
12726;DHT22;6427;49.754;6.106;2023-11-19T09:15:47;13.80;99.90
12726;DHT22;6427;49.754;6.106;2023-11-19T09:18:15;13.80;99.90
12726;DHT22;6427;49.754;6.106;2023-11-19T09:20:43;13.80;99.90
12726;DHT22;6427;49.754;6.106;2023-11-19T09:23:11;14.10;99.90
12726;DHT22;6427;49.754;6.106;2023-11-19T09:25:39;14.10;99.90
12726;DHT22;6427;49.754;6.106;2023-11-19T09:28:07;14.40;99.90
12726;DHT22;6427;49.754;6.106;2023-11-19T09:30:35;14.40;99.90
12726;DHT22;6427;49.754;6.106;2023-11-19T09:33:02;14.30;99.90
12726;DHT22;6427;49.754;6.106;2023-11-19T09:35:30;14.20;99.90
12726;DHT22;6427;49.754;6.106;2023-11-19T09:37:58;14.10;99.90
12726;DHT22;6427;49.754;6.106;2023-11-19T09:40:27;14.10;99.90
12726;DHT22;6427;49.754;6.106;2023-11-19T09:42:54;14.10;99.90
12726;DHT22;6427;49.754;6.106;2023-11-19T09:45:22;14.20;99.90
12726;DHT22;6427;49.754;6.106;2023-11-19T09:47:49;14.10;99.90
12726;DHT22;6427;49.754;6.106;2023-11-19T09:50:18;14.50;99.90
12726;DHT22;6427;49.754;6.106;2023-11-19T09:52:48;14.50;99.90
12726;DHT22;6427;49.754;6.106;2023-11-19T09:55:16;14.70;99.90
12726;DHT22;6427;49.754;6.106;2023-11-19T09:57:44;14.90;99.90
12726;DHT22;6427;49.754;6.106;2023-11-19T10:00:12;14.80;99.90
12726;DHT22;6427;49.754;6.106;2023-11-19T10:02:39;14.70;99.90
12726;DHT22;6427;49.754;6.106;2023-11-19T10:05:07;14.70;99.90
12726;DHT22;6427;49.754;6.106;2023-11-19T10:07:34;14.60;99.90
12726;DHT22;6427;49.754;6.106;2023-11-19T10:10:05;14.60;99.90
12726;DHT22;6427;49.754;6.106;2023-11-19T10:12:32;14.60;99.90
12726;DHT22;6427;49.754;6.106;2023-11-19T10:15:00;14.60;99.90
12726;DHT22;6427;49.754;6.106;2023-11-19T10:17:34;14.60;99.90
12726;DHT22;6427;49.754;6.106;2023-11-19T10:20:01;14.90;99.90
12726;DHT22;6427;49.754;6.106;2023-11-19T10:22:29;14.80;99.90
12726;DHT22;6427;49.754;6.106;2023-11-19T10:24:56;14.70;99.90
12726;DHT22;6427;49.754;6.106;2023-11-19T10:27:24;14.70;99.90
12726;DHT22;6427;49.754;6.106;2023-11-19T10:29:52;14.90;99.90
12726;DHT22;6427;49.754;6.106;2023-11-19T10:32:19;14.90;99.90
12726;DHT22;6427;49.754;6.106;2023-11-19T10:34:47;14.80;99.90
12726;DHT22;6427;49.754;6.106;2023-11-19T10:37:30;15.00;99.90
12726;DHT22;6427;49.754;6.106;2023-11-19T10:39:58;15.10;99.90
12726;DHT22;6427;49.754;6.106;2023-11-19T10:42:26;15.10;99.90
12726;DHT22;6427;49.754;6.106;2023-11-19T10:44:53;15.00;99.90
12726;DHT22;6427;49.754;6.106;2023-11-19T10:47:21;14.90;99.90
12726;DHT22;6427;49.754;6.106;2023-11-19T10:49:49;15.20;99.90
12726;DHT22;6427;49.754;6.106;2023-11-19T10:52:19;15.10;99.90
12726;DHT22;6427;49.754;6.106;2023-11-19T10:54:50;15.10;99.90
12726;DHT22;6427;49.754;6.106;2023-11-19T10:57:21;15.10;99.90
12726;DHT22;6427;49.754;6.106;2023-11-19T10:59:49;15.10;99.90
12726;DHT22;6427;49.754;6.106;2023-11-19T11:02:17;15.20;99.90
12726;DHT22;6427;49.754;6.106;2023-11-19T11:04:44;15.50;99.90
12726;DHT22;6427;49.754;6.106;2023-11-19T11:07:12;15.60;99.90
12726;DHT22;6427;49.754;6.106;2023-11-19T11:09:40;15.50;99.90
12726;DHT22;6427;49.754;6.106;2023-11-19T11:12:07;15.60;99.90
12726;DHT22;6427;49.754;6.106;2023-11-19T11:14:36;15.60;99.90
12726;DHT22;6427;49.754;6.106;2023-11-19T11:17:02;15.50;99.90
12726;DHT22;6427;49.754;6.106;2023-11-19T11:19:30;15.50;99.90
12726;DHT22;6427;49.754;6.106;2023-11-19T11:21:58;15.50;99.90
12726;DHT22;6427;49.754;6.106;2023-11-19T11:24:34;15.70;99.90
12726;DHT22;6427;49.754;6.106;2023-11-19T11:27:16;15.70;99.90
12726;DHT22;6427;49.754;6.106;2023-11-19T11:30:11;15.70;99.90
12726;DHT22;6427;49.754;6.106;2023-11-19T11:38:11;15.70;99.90
12726;DHT22;6427;49.754;6.106;2023-11-19T11:40:39;15.70;99.90
12726;DHT22;6427;49.754;6.106;2023-11-19T11:45:40;15.90;99.90
12726;DHT22;6427;49.754;6.106;2023-11-19T11:48:10;16.10;99.90
12726;DHT22;6427;49.754;6.106;2023-11-19T11:50:47;16.10;99.90
12726;DHT22;6427;49.754;6.106;2023-11-19T11:53:18;16.00;99.90
12726;DHT22;6427;49.754;6.106;2023-11-19T11:58:18;16.00;99.90
12726;DHT22;6427;49.754;6.106;2023-11-19T12:00:46;16.00;99.90
12726;DHT22;6427;49.754;6.106;2023-11-19T12:03:13;16.00;99.90
12726;DHT22;6427;49.754;6.106;2023-11-19T12:05:42;16.00;99.90
12726;DHT22;6427;49.754;6.106;2023-11-19T12:08:09;16.00;99.90
12726;DHT22;6427;49.754;6.106;2023-11-19T12:10:46;15.90;99.90
12726;DHT22;6427;49.754;6.106;2023-11-19T12:13:13;16.10;99.90
12726;DHT22;6427;49.754;6.106;2023-11-19T12:18:24;16.10;99.90
12726;DHT22;6427;49.754;6.106;2023-11-19T12:20:51;16.00;99.90
12726;DHT22;6427;49.754;6.106;2023-11-19T12:23:19;15.90;99.90
12726;DHT22;6427;49.754;6.106;2023-11-19T12:25:47;15.80;99.90
12726;DHT22;6427;49.754;6.106;2023-11-19T12:28:15;15.70;99.90
12726;DHT22;6427;49.754;6.106;2023-11-19T12:30:43;15.60;99.90
12726;DHT22;6427;49.754;6.106;2023-11-19T12:33:11;15.60;99.90
12726;DHT22;6427;49.754;6.106;2023-11-19T12:35:44;15.40;99.90
12726;DHT22;6427;49.754;6.106;2023-11-19T12:38:07;15.40;99.90
12726;DHT22;6427;49.754;6.106;2023-11-19T12:40:34;15.30;99.90
12726;DHT22;6427;49.754;6.106;2023-11-19T12:43:02;15.20;99.90
12726;DHT22;6427;49.754;6.106;2023-11-19T12:45:36;15.10;99.90
12726;DHT22;6427;49.754;6.106;2023-11-19T12:48:06;15.00;99.90
12726;DHT22;6427;49.754;6.106;2023-11-19T12:50:56;14.90;99.90
12726;DHT22;6427;49.754;6.106;2023-11-19T12:53:26;14.90;99.90
12726;DHT22;6427;49.754;6.106;2023-11-19T12:55:53;14.80;99.90
12726;DHT22;6427;49.754;6.106;2023-11-19T12:58:33;14.70;99.90
12726;DHT22;6427;49.754;6.106;2023-11-19T13:01:04;14.70;99.90
12726;DHT22;6427;49.754;6.106;2023-11-19T13:03:32;14.70;99.90
12726;DHT22;6427;49.754;6.106;2023-11-19T13:06:05;14.70;99.90
12726;DHT22;6427;49.754;6.106;2023-11-19T13:08:36;14.70;99.90
12726;DHT22;6427;49.754;6.106;2023-11-19T13:11:03;14.80;99.90
12726;DHT22;6427;49.754;6.106;2023-11-19T13:13:30;14.90;99.90
12726;DHT22;6427;49.754;6.106;2023-11-19T13:16:04;14.90;99.90
12726;DHT22;6427;49.754;6.106;2023-11-19T13:18:33;15.00;99.90
12726;DHT22;6427;49.754;6.106;2023-11-19T13:21:00;15.00;99.90
12726;DHT22;6427;49.754;6.106;2023-11-19T13:23:28;15.00;99.90
12726;DHT22;6427;49.754;6.106;2023-11-19T13:25:56;15.00;99.90
12726;DHT22;6427;49.754;6.106;2023-11-19T13:28:24;15.00;99.90
12726;DHT22;6427;49.754;6.106;2023-11-19T13:30:51;15.10;99.90
12726;DHT22;6427;49.754;6.106;2023-11-19T13:33:19;15.30;99.90
12726;DHT22;6427;49.754;6.106;2023-11-19T13:35:46;15.20;99.90
12726;DHT22;6427;49.754;6.106;2023-11-19T13:38:14;15.10;99.90
12726;DHT22;6427;49.754;6.106;2023-11-19T13:40:42;15.00;99.90
12726;DHT22;6427;49.754;6.106;2023-11-19T13:43:09;15.20;99.90
12726;DHT22;6427;49.754;6.106;2023-11-19T13:45:37;15.00;99.90
12726;DHT22;6427;49.754;6.106;2023-11-19T13:48:04;14.90;99.90
12726;DHT22;6427;49.754;6.106;2023-11-19T13:50:32;14.80;99.90
12726;DHT22;6427;49.754;6.106;2023-11-19T13:53:00;14.90;99.90
12726;DHT22;6427;49.754;6.106;2023-11-19T13:55:28;14.80;99.90
12726;DHT22;6427;49.754;6.106;2023-11-19T13:57:56;15.00;99.10
12726;DHT22;6427;49.754;6.106;2023-11-19T14:00:25;14.90;99.50
12726;DHT22;6427;49.754;6.106;2023-11-19T14:02:52;14.90;99.50
12726;DHT22;6427;49.754;6.106;2023-11-19T14:05:20;14.80;99.60
12726;DHT22;6427;49.754;6.106;2023-11-19T14:07:48;14.70;99.80
12726;DHT22;6427;49.754;6.106;2023-11-19T14:10:16;14.70;99.80
12726;DHT22;6427;49.754;6.106;2023-11-19T14:12:43;14.70;99.90
12726;DHT22;6427;49.754;6.106;2023-11-19T14:15:11;14.60;99.90
12726;DHT22;6427;49.754;6.106;2023-11-19T14:17:41;14.60;99.90
12726;DHT22;6427;49.754;6.106;2023-11-19T14:20:09;14.50;99.90
12726;DHT22;6427;49.754;6.106;2023-11-19T14:22:43;14.50;99.90
12726;DHT22;6427;49.754;6.106;2023-11-19T14:25:10;14.40;99.90
12726;DHT22;6427;49.754;6.106;2023-11-19T14:27:38;14.60;99.90
12726;DHT22;6427;49.754;6.106;2023-11-19T14:30:07;14.70;99.60
12726;DHT22;6427;49.754;6.106;2023-11-19T14:32:37;14.50;99.70
12726;DHT22;6427;49.754;6.106;2023-11-19T14:35:05;14.20;99.90
12726;DHT22;6427;49.754;6.106;2023-11-19T14:37:33;14.20;99.90
12726;DHT22;6427;49.754;6.106;2023-11-19T14:40:00;14.10;99.90
12726;DHT22;6427;49.754;6.106;2023-11-19T14:42:28;14.10;99.90
12726;DHT22;6427;49.754;6.106;2023-11-19T14:44:56;14.00;99.90
12726;DHT22;6427;49.754;6.106;2023-11-19T14:47:24;14.00;99.90
12726;DHT22;6427;49.754;6.106;2023-11-19T14:49:51;14.00;99.90
12726;DHT22;6427;49.754;6.106;2023-11-19T14:52:19;14.00;99.90
12726;DHT22;6427;49.754;6.106;2023-11-19T14:54:46;13.90;99.90
12726;DHT22;6427;49.754;6.106;2023-11-19T14:57:14;13.90;99.90
12726;DHT22;6427;49.754;6.106;2023-11-19T14:59:42;13.90;99.90
12726;DHT22;6427;49.754;6.106;2023-11-19T15:02:09;13.90;99.90
12726;DHT22;6427;49.754;6.106;2023-11-19T15:04:37;13.80;99.90
12726;DHT22;6427;49.754;6.106;2023-11-19T15:07:05;13.80;99.90
12726;DHT22;6427;49.754;6.106;2023-11-19T15:09:33;13.80;99.90
12726;DHT22;6427;49.754;6.106;2023-11-19T15:12:00;13.80;99.90
12726;DHT22;6427;49.754;6.106;2023-11-19T15:14:28;13.80;99.90
12726;DHT22;6427;49.754;6.106;2023-11-19T15:16:55;13.80;99.90
12726;DHT22;6427;49.754;6.106;2023-11-19T15:19:23;13.70;99.90
12726;DHT22;6427;49.754;6.106;2023-11-19T15:21:51;13.70;99.90
12726;DHT22;6427;49.754;6.106;2023-11-19T15:24:18;14.00;99.90
12726;DHT22;6427;49.754;6.106;2023-11-19T15:26:46;14.00;99.90
12726;DHT22;6427;49.754;6.106;2023-11-19T15:29:13;13.90;99.90
12726;DHT22;6427;49.754;6.106;2023-11-19T15:31:41;13.80;99.90
12726;DHT22;6427;49.754;6.106;2023-11-19T15:34:09;13.70;99.90
12726;DHT22;6427;49.754;6.106;2023-11-19T15:36:36;13.70;99.90
12726;DHT22;6427;49.754;6.106;2023-11-19T15:39:04;13.60;99.90
12726;DHT22;6427;49.754;6.106;2023-11-19T15:41:31;13.50;99.90
12726;DHT22;6427;49.754;6.106;2023-11-19T15:44:00;13.40;99.90
12726;DHT22;6427;49.754;6.106;2023-11-19T15:46:27;13.40;99.90
12726;DHT22;6427;49.754;6.106;2023-11-19T15:48:55;13.30;99.90
12726;DHT22;6427;49.754;6.106;2023-11-19T15:51:22;13.30;99.90
12726;DHT22;6427;49.754;6.106;2023-11-19T15:53:50;13.50;99.90
12726;DHT22;6427;49.754;6.106;2023-11-19T15:56:18;13.40;99.90
12726;DHT22;6427;49.754;6.106;2023-11-19T15:58:45;13.30;99.90
12726;DHT22;6427;49.754;6.106;2023-11-19T16:01:13;13.20;99.90
12726;DHT22;6427;49.754;6.106;2023-11-19T16:03:41;13.10;99.90